sensor_id;sensor_type;location;lat;lon;timestamp;temperature;humidity
3356;DHT22;1691;52.486;13.374;2023-11-19T00:01:09;4.70;98.70
3356;DHT22;1691;52.486;13.374;2023-11-19T00:03:37;4.80;98.70
3356;DHT22;1691;52.486;13.374;2023-11-19T00:06:04;4.80;98.70
3356;DHT22;1691;52.486;13.374;2023-11-19T00:08:31;4.80;98.70
3356;DHT22;1691;52.486;13.374;2023-11-19T00:10:58;4.80;98.70
3356;DHT22;1691;52.486;13.374;2023-11-19T00:13:25;4.80;98.70
3356;DHT22;1691;52.486;13.374;2023-11-19T00:15:52;4.80;98.70
3356;DHT22;1691;52.486;13.374;2023-11-19T00:18:19;4.90;98.70
3356;DHT22;1691;52.486;13.374;2023-11-19T00:20:47;4.90;98.70
3356;DHT22;1691;52.486;13.374;2023-11-19T00:23:14;4.90;98.70
3356;DHT22;1691;52.486;13.374;2023-11-19T00:25:42;4.90;98.70
3356;DHT22;1691;52.486;13.374;2023-11-19T00:28:09;4.90;98.70
3356;DHT22;1691;52.486;13.374;2023-11-19T00:30:36;4.90;98.70
3356;DHT22;1691;52.486;13.374;2023-11-19T00:33:03;4.90;98.70
3356;DHT22;1691;52.486;13.374;2023-11-19T00:35:30;4.90;98.70
3356;DHT22;1691;52.486;13.374;2023-11-19T00:37:58;4.90;98.70
3356;DHT22;1691;52.486;13.374;2023-11-19T00:40:25;5.00;98.70
3356;DHT22;1691;52.486;13.374;2023-11-19T00:42:52;5.00;98.70
3356;DHT22;1691;52.486;13.374;2023-11-19T00:45:19;5.00;98.70
3356;DHT22;1691;52.486;13.374;2023-11-19T00:47:47;5.00;98.70
3356;DHT22;1691;52.486;13.374;2023-11-19T00:50:14;5.00;98.70
3356;DHT22;1691;52.486;13.374;2023-11-19T00:52:42;5.00;98.70
3356;DHT22;1691;52.486;13.374;2023-11-19T00:55:09;5.00;98.70
3356;DHT22;1691;52.486;13.374;2023-11-19T00:57:36;5.00;98.70
3356;DHT22;1691;52.486;13.374;2023-11-19T01:00:05;5.00;98.70
3356;DHT22;1691;52.486;13.374;2023-11-19T01:02:47;5.10;98.70
3356;DHT22;1691;52.486;13.374;2023-11-19T01:05:18;5.00;98.70
3356;DHT22;1691;52.486;13.374;2023-11-19T01:07:49;5.10;98.70
3356;DHT22;1691;52.486;13.374;2023-11-19T01:10:16;5.10;98.70
3356;DHT22;1691;52.486;13.374;2023-11-19T01:12:45;5.10;98.70
3356;DHT22;1691;52.486;13.374;2023-11-19T01:15:12;5.10;98.70
3356;DHT22;1691;52.486;13.374;2023-11-19T01:17:40;5.10;98.70
3356;DHT22;1691;52.486;13.374;2023-11-19T01:20:18;5.20;98.70
3356;DHT22;1691;52.486;13.374;2023-11-19T01:22:47;5.20;98.70
3356;DHT22;1691;52.486;13.374;2023-11-19T01:25:16;5.20;98.70
3356;DHT22;1691;52.486;13.374;2023-11-19T01:27:43;5.20;98.70
3356;DHT22;1691;52.486;13.374;2023-11-19T01:30:10;5.30;98.70
3356;DHT22;1691;52.486;13.374;2023-11-19T01:32:40;5.30;98.70
3356;DHT22;1691;52.486;13.374;2023-11-19T01:35:07;5.30;98.70
3356;DHT22;1691;52.486;13.374;2023-11-19T01:37:34;5.30;98.70
3356;DHT22;1691;52.486;13.374;2023-11-19T01:40:03;5.30;98.70
3356;DHT22;1691;52.486;13.374;2023-11-19T01:42:38;5.40;98.70
3356;DHT22;1691;52.486;13.374;2023-11-19T01:45:05;5.40;98.70
3356;DHT22;1691;52.486;13.374;2023-11-19T01:47:34;5.40;98.70
3356;DHT22;1691;52.486;13.374;2023-11-19T01:50:03;5.40;98.70
3356;DHT22;1691;52.486;13.374;2023-11-19T01:52:34;5.40;98.70
3356;DHT22;1691;52.486;13.374;2023-11-19T01:55:07;5.40;98.70
3356;DHT22;1691;52.486;13.374;2023-11-19T01:57:36;5.40;98.70
3356;DHT22;1691;52.486;13.374;2023-11-19T02:00:08;5.30;98.70
3356;DHT22;1691;52.486;13.374;2023-11-19T02:02:39;5.30;98.70
3356;DHT22;1691;52.486;13.374;2023-11-19T02:05:15;5.20;98.70
3356;DHT22;1691;52.486;13.374;2023-11-19T02:07:43;5.10;98.70
3356;DHT22;1691;52.486;13.374;2023-11-19T02:10:10;5.10;98.70
3356;DHT22;1691;52.486;13.374;2023-11-19T02:12:41;5.10;98.70
3356;DHT22;1691;52.486;13.374;2023-11-19T02:15:11;5.00;98.70
3356;DHT22;1691;52.486;13.374;2023-11-19T02:17:38;5.00;98.70
3356;DHT22;1691;52.486;13.374;2023-11-19T02:20:06;5.00;98.70
3356;DHT22;1691;52.486;13.374;2023-11-19T02:22:36;5.00;98.70
3356;DHT22;1691;52.486;13.374;2023-11-19T02:25:08;5.00;98.70
3356;DHT22;1691;52.486;13.374;2023-11-19T02:27:53;5.00;98.70
3356;DHT22;1691;52.486;13.374;2023-11-19T02:30:24;5.00;98.70
3356;DHT22;1691;52.486;13.374;2023-11-19T02:32:56;5.00;98.70
3356;DHT22;1691;52.486;13.374;2023-11-19T02:35:28;5.10;98.70
3356;DHT22;1691;52.486;13.374;2023-11-19T02:37:59;5.10;98.70
3356;DHT22;1691;52.486;13.374;2023-11-19T02:40:27;5.10;98.70
3356;DHT22;1691;52.486;13.374;2023-11-19T02:42:54;5.20;98.70
3356;DHT22;1691;52.486;13.374;2023-11-19T02:45:23;5.20;98.70
3356;DHT22;1691;52.486;13.374;2023-11-19T02:47:51;5.20;98.70
3356;DHT22;1691;52.486;13.374;2023-11-19T02:50:19;5.20;98.70
3356;DHT22;1691;52.486;13.374;2023-11-19T02:52:53;5.20;98.70
3356;DHT22;1691;52.486;13.374;2023-11-19T02:55:23;5.30;98.70
3356;DHT22;1691;52.486;13.374;2023-11-19T02:57:51;5.30;98.70
3356;DHT22;1691;52.486;13.374;2023-11-19T03:00:21;5.30;98.70
3356;DHT22;1691;52.486;13.374;2023-11-19T03:02:59;5.30;98.70
3356;DHT22;1691;52.486;13.374;2023-11-19T03:05:27;5.30;98.70
3356;DHT22;1691;52.486;13.374;2023-11-19T03:07:57;5.40;98.70
3356;DHT22;1691;52.486;13.374;2023-11-19T03:10:24;5.40;98.70
3356;DHT22;1691;52.486;13.374;2023-11-19T03:12:51;5.40;98.70
3356;DHT22;1691;52.486;13.374;2023-11-19T03:15:18;5.40;98.70
3356;DHT22;1691;52.486;13.374;2023-11-19T03:17:45;5.40;98.70
3356;DHT22;1691;52.486;13.374;2023-11-19T03:20:12;5.40;98.70
3356;DHT22;1691;52.486;13.374;2023-11-19T03:22:43;5.50;98.70
3356;DHT22;1691;52.486;13.374;2023-11-19T03:25:10;5.50;98.70
3356;DHT22;1691;52.486;13.374;2023-11-19T03:27:38;5.50;98.70
3356;DHT22;1691;52.486;13.374;2023-11-19T03:30:06;5.50;98.70
3356;DHT22;1691;52.486;13.374;2023-11-19T03:32:33;5.50;98.70
3356;DHT22;1691;52.486;13.374;2023-11-19T03:35:02;5.50;98.70
3356;DHT22;1691;52.486;13.374;2023-11-19T03:37:38;5.50;98.70
3356;DHT22;1691;52.486;13.374;2023-11-19T03:40:06;5.40;98.70
3356;DHT22;1691;52.486;13.374;2023-11-19T03:42:34;5.30;98.70
3356;DHT22;1691;52.486;13.374;2023-11-19T03:45:01;5.10;98.70
3356;DHT22;1691;52.486;13.374;2023-11-19T03:47:30;4.90;98.70
3356;DHT22;1691;52.486;13.374;2023-11-19T03:49:57;4.70;98.70
3356;DHT22;1691;52.486;13.374;2023-11-19T03:52:24;4.60;98.70
3356;DHT22;1691;52.486;13.374;2023-11-19T03:54:51;4.60;98.70
3356;DHT22;1691;52.486;13.374;2023-11-19T03:57:18;4.60;98.70
3356;DHT22;1691;52.486;13.374;2023-11-19T03:59:45;4.50;98.70
3356;DHT22;1691;52.486;13.374;2023-11-19T04:02:12;4.50;98.70
3356;DHT22;1691;52.486;13.374;2023-11-19T04:04:39;4.50;98.70
3356;DHT22;1691;52.486;13.374;2023-11-19T04:07:06;4.50;98.70
3356;DHT22;1691;52.486;13.374;2023-11-19T04:09:33;4.50;98.70
3356;DHT22;1691;52.486;13.374;2023-11-19T04:12:00;4.50;98.70
3356;DHT22;1691;52.486;13.374;2023-11-19T04:14:27;4.50;98.70
3356;DHT22;1691;52.486;13.374;2023-11-19T04:16:54;4.50;98.70
3356;DHT22;1691;52.486;13.374;2023-11-19T04:19:21;4.50;98.70
3356;DHT22;1691;52.486;13.374;2023-11-19T04:21:49;4.50;98.70
3356;DHT22;1691;52.486;13.374;2023-11-19T04:24:16;4.50;98.70
3356;DHT22;1691;52.486;13.374;2023-11-19T04:26:43;4.50;98.70
3356;DHT22;1691;52.486;13.374;2023-11-19T04:29:12;4.50;98.70
3356;DHT22;1691;52.486;13.374;2023-11-19T04:31:41;4.50;98.70
3356;DHT22;1691;52.486;13.374;2023-11-19T04:34:08;4.60;98.70
3356;DHT22;1691;52.486;13.374;2023-11-19T04:36:35;4.60;98.70
3356;DHT22;1691;52.486;13.374;2023-11-19T04:39:04;4.60;98.70
3356;DHT22;1691;52.486;13.374;2023-11-19T04:41:49;4.60;98.70
3356;DHT22;1691;52.486;13.374;2023-11-19T04:44:16;4.60;98.70
3356;DHT22;1691;52.486;13.374;2023-11-19T04:46:44;4.60;98.70
3356;DHT22;1691;52.486;13.374;2023-11-19T04:49:13;4.70;98.70
3356;DHT22;1691;52.486;13.374;2023-11-19T04:51:41;4.70;98.70
3356;DHT22;1691;52.486;13.374;2023-11-19T04:54:10;4.70;98.70
3356;DHT22;1691;52.486;13.374;2023-11-19T04:56:37;4.70;98.70
3356;DHT22;1691;52.486;13.374;2023-11-19T04:59:04;4.70;98.70
3356;DHT22;1691;52.486;13.374;2023-11-19T05:01:33;4.70;98.70
3356;DHT22;1691;52.486;13.374;2023-11-19T05:04:00;4.70;98.70
3356;DHT22;1691;52.486;13.374;2023-11-19T05:06:29;4.70;98.70
3356;DHT22;1691;52.486;13.374;2023-11-19T05:08:59;4.70;98.70
3356;DHT22;1691;52.486;13.374;2023-11-19T05:11:35;4.70;98.70
3356;DHT22;1691;52.486;13.374;2023-11-19T05:14:16;4.70;98.70
3356;DHT22;1691;52.486;13.374;2023-11-19T05:16:45;4.70;98.70
3356;DHT22;1691;52.486;13.374;2023-11-19T05:19:12;4.70;98.70
3356;DHT22;1691;52.486;13.374;2023-11-19T05:21:42;4.70;98.70
3356;DHT22;1691;52.486;13.374;2023-11-19T05:24:10;4.70;98.70
3356;DHT22;1691;52.486;13.374;2023-11-19T05:26:38;4.80;98.70
3356;DHT22;1691;52.486;13.374;2023-11-19T05:29:05;4.80;98.70
3356;DHT22;1691;52.486;13.374;2023-11-19T05:31:32;4.80;98.70
3356;DHT22;1691;52.486;13.374;2023-11-19T05:34:02;4.80;98.70
3356;DHT22;1691;52.486;13.374;2023-11-19T05:36:30;4.80;98.70
3356;DHT22;1691;52.486;13.374;2023-11-19T05:38:57;4.80;98.70
3356;DHT22;1691;52.486;13.374;2023-11-19T05:41:24;4.80;98.70
3356;DHT22;1691;52.486;13.374;2023-11-19T05:43:51;4.90;98.70
3356;DHT22;1691;52.486;13.374;2023-11-19T05:46:18;4.90;98.70
3356;DHT22;1691;52.486;13.374;2023-11-19T05:48:47;4.90;98.70
3356;DHT22;1691;52.486;13.374;2023-11-19T05:51:15;4.90;98.70
3356;DHT22;1691;52.486;13.374;2023-11-19T05:53:42;4.90;98.70
3356;DHT22;1691;52.486;13.374;2023-11-19T05:56:10;4.90;98.70
3356;DHT22;1691;52.486;13.374;2023-11-19T05:58:37;4.90;98.70
3356;DHT22;1691;52.486;13.374;2023-11-19T06:01:06;4.90;98.70
3356;DHT22;1691;52.486;13.374;2023-11-19T06:03:35;4.90;98.70
3356;DHT22;1691;52.486;13.374;2023-11-19T06:06:03;4.90;98.70
3356;DHT22;1691;52.486;13.374;2023-11-19T06:08:31;4.90;98.70
3356;DHT22;1691;52.486;13.374;2023-11-19T06:10:58;4.90;98.70
3356;DHT22;1691;52.486;13.374;2023-11-19T06:13:28;4.90;98.70
3356;DHT22;1691;52.486;13.374;2023-11-19T06:15:57;4.90;98.70
3356;DHT22;1691;52.486;13.374;2023-11-19T06:18:24;4.90;98.70
3356;DHT22;1691;52.486;13.374;2023-11-19T06:20:52;5.00;98.70
3356;DHT22;1691;52.486;13.374;2023-11-19T06:23:18;5.00;98.70
3356;DHT22;1691;52.486;13.374;2023-11-19T06:25:46;5.00;98.70
3356;DHT22;1691;52.486;13.374;2023-11-19T06:28:13;5.00;98.70
3356;DHT22;1691;52.486;13.374;2023-11-19T06:30:40;5.00;98.70
3356;DHT22;1691;52.486;13.374;2023-11-19T06:33:08;5.00;98.70
3356;DHT22;1691;52.486;13.374;2023-11-19T06:35:35;5.00;98.70
3356;DHT22;1691;52.486;13.374;2023-11-19T06:38:05;5.00;98.70
3356;DHT22;1691;52.486;13.374;2023-11-19T06:40:35;5.00;98.70
3356;DHT22;1691;52.486;13.374;2023-11-19T06:43:03;5.00;98.70
3356;DHT22;1691;52.486;13.374;2023-11-19T06:45:30;5.00;98.70
3356;DHT22;1691;52.486;13.374;2023-11-19T06:47:58;5.00;98.70
3356;DHT22;1691;52.486;13.374;2023-11-19T06:50:27;5.00;98.70
3356;DHT22;1691;52.486;13.374;2023-11-19T06:52:55;5.10;98.70
3356;DHT22;1691;52.486;13.374;2023-11-19T06:55:22;5.10;98.70
3356;DHT22;1691;52.486;13.374;2023-11-19T06:57:49;5.10;98.70
3356;DHT22;1691;52.486;13.374;2023-11-19T07:00:16;5.10;98.70
3356;DHT22;1691;52.486;13.374;2023-11-19T07:02:44;5.10;98.70
3356;DHT22;1691;52.486;13.374;2023-11-19T07:05:11;5.20;98.70
3356;DHT22;1691;52.486;13.374;2023-11-19T07:07:39;5.20;98.70
3356;DHT22;1691;52.486;13.374;2023-11-19T07:10:07;5.20;98.70
3356;DHT22;1691;52.486;13.374;2023-11-19T07:12:36;5.30;98.70
3356;DHT22;1691;52.486;13.374;2023-11-19T07:15:03;5.30;98.70
3356;DHT22;1691;52.486;13.374;2023-11-19T07:17:31;5.30;98.70
3356;DHT22;1691;52.486;13.374;2023-11-19T07:19:59;5.40;98.70
3356;DHT22;1691;52.486;13.374;2023-11-19T07:22:26;5.40;98.70
3356;DHT22;1691;52.486;13.374;2023-11-19T07:24:53;5.40;98.70
3356;DHT22;1691;52.486;13.374;2023-11-19T07:27:20;5.50;98.70
3356;DHT22;1691;52.486;13.374;2023-11-19T07:29:47;5.50;98.70
3356;DHT22;1691;52.486;13.374;2023-11-19T07:32:14;5.50;98.70
3356;DHT22;1691;52.486;13.374;2023-11-19T07:34:41;5.50;98.70
3356;DHT22;1691;52.486;13.374;2023-11-19T07:37:08;5.50;98.70
3356;DHT22;1691;52.486;13.374;2023-11-19T07:39:35;5.50;98.70
3356;DHT22;1691;52.486;13.374;2023-11-19T07:42:04;5.60;98.70
3356;DHT22;1691;52.486;13.374;2023-11-19T07:44:31;5.60;98.70
3356;DHT22;1691;52.486;13.374;2023-11-19T07:46:58;5.70;98.70
3356;DHT22;1691;52.486;13.374;2023-11-19T07:49:26;5.80;98.70
3356;DHT22;1691;52.486;13.374;2023-11-19T07:51:53;5.80;98.70
3356;DHT22;1691;52.486;13.374;2023-11-19T07:54:20;5.80;98.70
3356;DHT22;1691;52.486;13.374;2023-11-19T07:56:48;5.90;98.70
3356;DHT22;1691;52.486;13.374;2023-11-19T07:59:16;5.90;98.70
3356;DHT22;1691;52.486;13.374;2023-11-19T08:01:43;5.90;98.70
3356;DHT22;1691;52.486;13.374;2023-11-19T08:04:10;5.90;98.70
3356;DHT22;1691;52.486;13.374;2023-11-19T08:06:38;6.00;98.70
3356;DHT22;1691;52.486;13.374;2023-11-19T08:09:05;6.10;98.70
3356;DHT22;1691;52.486;13.374;2023-11-19T08:11:33;6.20;98.70
3356;DHT22;1691;52.486;13.374;2023-11-19T08:14:00;6.20;98.70
3356;DHT22;1691;52.486;13.374;2023-11-19T08:16:27;6.20;98.70
3356;DHT22;1691;52.486;13.374;2023-11-19T08:18:54;6.30;98.70
3356;DHT22;1691;52.486;13.374;2023-11-19T08:21:21;6.30;98.70
3356;DHT22;1691;52.486;13.374;2023-11-19T08:23:49;6.40;98.70
3356;DHT22;1691;52.486;13.374;2023-11-19T08:26:16;6.40;98.70
3356;DHT22;1691;52.486;13.374;2023-11-19T08:28:47;6.40;98.70
3356;DHT22;1691;52.486;13.374;2023-11-19T08:31:15;6.50;98.70
3356;DHT22;1691;52.486;13.374;2023-11-19T08:33:42;6.60;98.70
3356;DHT22;1691;52.486;13.374;2023-11-19T08:36:15;6.70;98.70
3356;DHT22;1691;52.486;13.374;2023-11-19T08:38:44;6.80;98.70
3356;DHT22;1691;52.486;13.374;2023-11-19T08:41:11;6.80;98.70
3356;DHT22;1691;52.486;13.374;2023-11-19T08:43:39;6.80;98.70
3356;DHT22;1691;52.486;13.374;2023-11-19T08:46:10;6.90;98.70
3356;DHT22;1691;52.486;13.374;2023-11-19T08:48:38;7.00;98.70
3356;DHT22;1691;52.486;13.374;2023-11-19T08:51:06;7.00;98.70
3356;DHT22;1691;52.486;13.374;2023-11-19T08:53:34;7.10;98.70
3356;DHT22;1691;52.486;13.374;2023-11-19T08:56:01;7.20;98.70
3356;DHT22;1691;52.486;13.374;2023-11-19T08:58:30;7.40;98.70
3356;DHT22;1691;52.486;13.374;2023-11-19T09:00:58;7.50;98.70
3356;DHT22;1691;52.486;13.374;2023-11-19T09:03:25;7.60;98.70
3356;DHT22;1691;52.486;13.374;2023-11-19T09:05:57;7.60;98.70
3356;DHT22;1691;52.486;13.374;2023-11-19T09:08:24;7.60;98.70
3356;DHT22;1691;52.486;13.374;2023-11-19T09:10:52;7.60;98.70
3356;DHT22;1691;52.486;13.374;2023-11-19T09:13:19;7.70;98.70
3356;DHT22;1691;52.486;13.374;2023-11-19T09:15:46;7.80;98.70
3356;DHT22;1691;52.486;13.374;2023-11-19T09:18:13;7.90;98.70
3356;DHT22;1691;52.486;13.374;2023-11-19T09:20:41;7.90;98.70
3356;DHT22;1691;52.486;13.374;2023-11-19T09:23:08;8.00;98.70
3356;DHT22;1691;52.486;13.374;2023-11-19T09:25:36;8.10;98.70
3356;DHT22;1691;52.486;13.374;2023-11-19T09:28:06;8.20;98.70
3356;DHT22;1691;52.486;13.374;2023-11-19T09:30:36;8.50;98.70
3356;DHT22;1691;52.486;13.374;2023-11-19T09:33:03;8.80;98.70
3356;DHT22;1691;52.486;13.374;2023-11-19T09:35:31;9.00;98.70
3356;DHT22;1691;52.486;13.374;2023-11-19T09:37:58;9.20;98.70
3356;DHT22;1691;52.486;13.374;2023-11-19T09:40:28;9.20;98.70
3356;DHT22;1691;52.486;13.374;2023-11-19T09:42:55;9.30;98.70
3356;DHT22;1691;52.486;13.374;2023-11-19T09:45:27;9.40;98.70
3356;DHT22;1691;52.486;13.374;2023-11-19T09:47:55;9.40;98.70
3356;DHT22;1691;52.486;13.374;2023-11-19T09:50:24;9.70;98.70
3356;DHT22;1691;52.486;13.374;2023-11-19T09:52:52;9.90;98.70
3356;DHT22;1691;52.486;13.374;2023-11-19T09:55:19;10.30;98.70
3356;DHT22;1691;52.486;13.374;2023-11-19T09:57:48;10.50;98.70
3356;DHT22;1691;52.486;13.374;2023-11-19T10:00:17;10.60;98.70
3356;DHT22;1691;52.486;13.374;2023-11-19T10:02:46;10.50;98.70
3356;DHT22;1691;52.486;13.374;2023-11-19T10:05:15;10.60;98.70
3356;DHT22;1691;52.486;13.374;2023-11-19T10:07:42;10.70;98.70
3356;DHT22;1691;52.486;13.374;2023-11-19T10:10:12;10.70;98.70
3356;DHT22;1691;52.486;13.374;2023-11-19T10:12:46;10.70;98.70
3356;DHT22;1691;52.486;13.374;2023-11-19T10:15:23;10.60;98.70
3356;DHT22;1691;52.486;13.374;2023-11-19T10:17:57;10.50;98.70
3356;DHT22;1691;52.486;13.374;2023-11-19T10:20:25;10.50;98.70
3356;DHT22;1691;52.486;13.374;2023-11-19T10:22:56;10.40;98.70
3356;DHT22;1691;52.486;13.374;2023-11-19T10:25:25;10.40;98.70
3356;DHT22;1691;52.486;13.374;2023-11-19T10:27:54;10.50;98.70
3356;DHT22;1691;52.486;13.374;2023-11-19T10:30:27;10.50;98.70
3356;DHT22;1691;52.486;13.374;2023-11-19T10:33:09;10.60;98.70
3356;DHT22;1691;52.486;13.374;2023-11-19T10:35:55;10.70;98.70
3356;DHT22;1691;52.486;13.374;2023-11-19T10:38:26;10.90;98.70
3356;DHT22;1691;52.486;13.374;2023-11-19T10:40:54;11.10;98.70
3356;DHT22;1691;52.486;13.374;2023-11-19T10:43:22;11.10;98.70
3356;DHT22;1691;52.486;13.374;2023-11-19T10:45:51;11.30;98.70
3356;DHT22;1691;52.486;13.374;2023-11-19T10:48:19;11.40;98.70
3356;DHT22;1691;52.486;13.374;2023-11-19T10:50:53;11.50;98.70
3356;DHT22;1691;52.486;13.374;2023-11-19T10:53:24;11.60;98.70
3356;DHT22;1691;52.486;13.374;2023-11-19T10:55:54;11.60;98.70
3356;DHT22;1691;52.486;13.374;2023-11-19T10:58:28;11.70;98.70
3356;DHT22;1691;52.486;13.374;2023-11-19T11:00:57;11.80;98.70
3356;DHT22;1691;52.486;13.374;2023-11-19T11:03:35;11.90;98.70
3356;DHT22;1691;52.486;13.374;2023-11-19T11:06:09;11.90;98.70
3356;DHT22;1691;52.486;13.374;2023-11-19T11:08:37;11.80;98.70
3356;DHT22;1691;52.486;13.374;2023-11-19T11:11:07;11.70;98.70
3356;DHT22;1691;52.486;13.374;2023-11-19T11:13:40;11.70;98.70
3356;DHT22;1691;52.486;13.374;2023-11-19T11:16:10;11.60;98.70
3356;DHT22;1691;52.486;13.374;2023-11-19T11:18:38;11.50;98.70
3356;DHT22;1691;52.486;13.374;2023-11-19T11:21:09;11.50;98.70
3356;DHT22;1691;52.486;13.374;2023-11-19T11:27:02;11.40;98.70
3356;DHT22;1691;52.486;13.374;2023-11-19T11:34:29;11.40;98.70
3356;DHT22;1691;52.486;13.374;2023-11-19T11:39:22;11.60;98.70
3356;DHT22;1691;52.486;13.374;2023-11-19T11:45:19;11.70;98.70
3356;DHT22;1691;52.486;13.374;2023-11-19T11:48:09;11.80;98.70
3356;DHT22;1691;52.486;13.374;2023-11-19T11:50:51;11.80;98.70
3356;DHT22;1691;52.486;13.374;2023-11-19T11:53:22;11.80;98.70
3356;DHT22;1691;52.486;13.374;2023-11-19T11:55:52;11.80;98.70
3356;DHT22;1691;52.486;13.374;2023-11-19T11:58:25;11.80;98.70
3356;DHT22;1691;52.486;13.374;2023-11-19T12:00:54;11.90;98.70
3356;DHT22;1691;52.486;13.374;2023-11-19T12:03:27;12.00;98.70
3356;DHT22;1691;52.486;13.374;2023-11-19T12:05:56;12.10;98.70
3356;DHT22;1691;52.486;13.374;2023-11-19T12:08:28;12.20;98.70
3356;DHT22;1691;52.486;13.374;2023-11-19T12:10:58;12.30;98.70
3356;DHT22;1691;52.486;13.374;2023-11-19T12:13:55;12.30;98.70
3356;DHT22;1691;52.486;13.374;2023-11-19T12:16:25;12.30;98.70
3356;DHT22;1691;52.486;13.374;2023-11-19T12:18:54;12.30;98.70
3356;DHT22;1691;52.486;13.374;2023-11-19T12:21:30;12.30;98.70
3356;DHT22;1691;52.486;13.374;2023-11-19T12:23:59;12.30;98.70
3356;DHT22;1691;52.486;13.374;2023-11-19T12:26:35;12.30;98.70
3356;DHT22;1691;52.486;13.374;2023-11-19T12:29:07;12.40;98.70
3356;DHT22;1691;52.486;13.374;2023-11-19T12:31:36;12.30;98.70
3356;DHT22;1691;52.486;13.374;2023-11-19T12:34:07;12.30;98.70
3356;DHT22;1691;52.486;13.374;2023-11-19T12:36:40;12.30;98.70
3356;DHT22;1691;52.486;13.374;2023-11-19T12:39:09;12.20;98.70
3356;DHT22;1691;52.486;13.374;2023-11-19T12:41:50;12.20;98.70
3356;DHT22;1691;52.486;13.374;2023-11-19T12:44:18;12.10;98.70
3356;DHT22;1691;52.486;13.374;2023-11-19T12:46:46;12.00;98.70
3356;DHT22;1691;52.486;13.374;2023-11-19T12:49:13;12.00;98.70
3356;DHT22;1691;52.486;13.374;2023-11-19T12:51:41;11.90;98.70
3356;DHT22;1691;52.486;13.374;2023-11-19T12:54:08;11.90;98.70
3356;DHT22;1691;52.486;13.374;2023-11-19T12:56:35;11.90;98.70
3356;DHT22;1691;52.486;13.374;2023-11-19T12:59:11;12.00;98.70
3356;DHT22;1691;52.486;13.374;2023-11-19T13:01:56;12.00;98.70
3356;DHT22;1691;52.486;13.374;2023-11-19T13:04:28;11.90;98.70
3356;DHT22;1691;52.486;13.374;2023-11-19T13:06:59;11.90;98.70
3356;DHT22;1691;52.486;13.374;2023-11-19T13:09:30;11.80;98.70
3356;DHT22;1691;52.486;13.374;2023-11-19T13:11:57;11.80;98.70
3356;DHT22;1691;52.486;13.374;2023-11-19T13:14:36;11.80;98.70
3356;DHT22;1691;52.486;13.374;2023-11-19T13:17:05;11.80;98.70
3356;DHT22;1691;52.486;13.374;2023-11-19T13:19:32;11.70;98.70
3356;DHT22;1691;52.486;13.374;2023-11-19T13:22:00;11.70;98.70
3356;DHT22;1691;52.486;13.374;2023-11-19T13:24:27;11.70;98.70
3356;DHT22;1691;52.486;13.374;2023-11-19T13:26:54;11.60;98.70
3356;DHT22;1691;52.486;13.374;2023-11-19T13:29:22;11.60;98.70
3356;DHT22;1691;52.486;13.374;2023-11-19T13:31:50;11.60;98.70
3356;DHT22;1691;52.486;13.374;2023-11-19T13:34:17;11.60;98.70
3356;DHT22;1691;52.486;13.374;2023-11-19T13:36:44;11.50;98.70
3356;DHT22;1691;52.486;13.374;2023-11-19T13:39:12;11.50;98.70
3356;DHT22;1691;52.486;13.374;2023-11-19T13:41:39;11.50;98.70
3356;DHT22;1691;52.486;13.374;2023-11-19T13:44:06;11.60;98.70
3356;DHT22;1691;52.486;13.374;2023-11-19T13:46:34;11.60;98.70
3356;DHT22;1691;52.486;13.374;2023-11-19T13:49:01;11.70;98.70
3356;DHT22;1691;52.486;13.374;2023-11-19T13:51:31;11.70;98.70
3356;DHT22;1691;52.486;13.374;2023-11-19T13:53:59;11.80;98.70
3356;DHT22;1691;52.486;13.374;2023-11-19T13:56:27;11.80;98.70
3356;DHT22;1691;52.486;13.374;2023-11-19T13:58:54;11.80;98.70
3356;DHT22;1691;52.486;13.374;2023-11-19T14:01:21;11.80;98.70
3356;DHT22;1691;52.486;13.374;2023-11-19T14:03:52;11.80;98.70
3356;DHT22;1691;52.486;13.374;2023-11-19T14:06:20;11.80;98.70
3356;DHT22;1691;52.486;13.374;2023-11-19T14:08:47;11.80;98.70
3356;DHT22;1691;52.486;13.374;2023-11-19T14:11:15;11.80;98.70
3356;DHT22;1691;52.486;13.374;2023-11-19T14:13:42;11.80;98.70
3356;DHT22;1691;52.486;13.374;2023-11-19T14:16:10;11.90;98.70
3356;DHT22;1691;52.486;13.374;2023-11-19T14:18:39;11.90;98.70
3356;DHT22;1691;52.486;13.374;2023-11-19T14:21:07;11.90;98.70
3356;DHT22;1691;52.486;13.374;2023-11-19T14:23:34;11.90;98.70
3356;DHT22;1691;52.486;13.374;2023-11-19T14:26:02;11.90;98.70
3356;DHT22;1691;52.486;13.374;2023-11-19T14:28:29;11.90;98.70
3356;DHT22;1691;52.486;13.374;2023-11-19T14:30:58;11.80;98.70
3356;DHT22;1691;52.486;13.374;2023-11-19T14:33:25;11.80;98.70
3356;DHT22;1691;52.486;13.374;2023-11-19T14:35:53;11.80;98.70
3356;DHT22;1691;52.486;13.374;2023-11-19T14:38:20;11.80;98.70
3356;DHT22;1691;52.486;13.374;2023-11-19T14:40:47;11.80;98.70
3356;DHT22;1691;52.486;13.374;2023-11-19T14:43:15;11.80;98.70
3356;DHT22;1691;52.486;13.374;2023-11-19T14:45:42;11.80;98.70
3356;DHT22;1691;52.486;13.374;2023-11-19T14:48:16;11.70;98.70
3356;DHT22;1691;52.486;13.374;2023-11-19T14:50:46;11.70;98.70
3356;DHT22;1691;52.486;13.374;2023-11-19T14:53:16;11.70;98.70
3356;DHT22;1691;52.486;13.374;2023-11-19T14:55:44;11.60;98.70
3356;DHT22;1691;52.486;13.374;2023-11-19T14:58:11;11.60;98.70
3356;DHT22;1691;52.486;13.374;2023-11-19T15:00:43;11.60;98.70
3356;DHT22;1691;52.486;13.374;2023-11-19T15:03:12;11.60;98.70
3356;DHT22;1691;52.486;13.374;2023-11-19T15:05:40;11.50;98.70
3356;DHT22;1691;52.486;13.374;2023-11-19T15:08:08;11.50;98.70
3356;DHT22;1691;52.486;13.374;2023-11-19T15:10:35;11.50;98.70
3356;DHT22;1691;52.486;13.374;2023-11-19T15:13:03;11.50;98.70
3356;DHT22;1691;52.486;13.374;2023-11-19T15:15:30;11.50;98.70
3356;DHT22;1691;52.486;13.374;2023-11-19T15:18:01;11.50;98.70
3356;DHT22;1691;52.486;13.374;2023-11-19T15:20:28;11.50;98.70
3356;DHT22;1691;52.486;13.374;2023-11-19T15:22:59;11.40;98.70
3356;DHT22;1691;52.486;13.374;2023-11-19T15:25:26;11.40;98.70
3356;DHT22;1691;52.486;13.374;2023-11-19T15:27:54;11.40;98.70
3356;DHT22;1691;52.486;13.374;2023-11-19T15:30:22;11.40;98.70
3356;DHT22;1691;52.486;13.374;2023-11-19T15:32:49;11.30;98.70
3356;DHT22;1691;52.486;13.374;2023-11-19T15:35:16;11.30;98.70
3356;DHT22;1691;52.486;13.374;2023-11-19T15:37:44;11.20;98.70
3356;DHT22;1691;52.486;13.374;2023-11-19T15:40:12;11.20;98.70
3356;DHT22;1691;52.486;13.374;2023-11-19T15:42:40;11.10;98.70
3356;DHT22;1691;52.486;13.374;2023-11-19T15:45:12;11.10;98.70
3356;DHT22;1691;52.486;13.374;2023-11-19T15:47:40;11.10;98.70
3356;DHT22;1691;52.486;13.374;2023-11-19T15:50:08;11.10;98.70
3356;DHT22;1691;52.486;13.374;2023-11-19T15:52:37;11.10;98.70
3356;DHT22;1691;52.486;13.374;2023-11-19T15:55:05;11.10;98.70
3356;DHT22;1691;52.486;13.374;2023-11-19T15:57:33;11.10;98.70
3356;DHT22;1691;52.486;13.374;2023-11-19T16:00:00;11.20;98.70
3356;DHT22;1691;52.486;13.374;2023-11-19T16:02:27;11.20;98.70
3356;DHT22;1691;52.486;13.374;2023-11-19T16:04:55;11.20;98.70
3356;DHT22;1691;52.486;13.374;2023-11-19T16:07:22;11.20;98.70
3356;DHT22;1691;52.486;13.374;2023-11-19T16:09:50;11.10;98.70
3356;DHT22;1691;52.486;13.374;2023-11-19T16:12:17;11.10;98.70
3356;DHT22;1691;52.486;13.374;2023-11-19T16:14:44;11.10;98.70
3356;DHT22;1691;52.486;13.374;2023-11-19T16:17:12;11.10;98.70
3356;DHT22;1691;52.486;13.374;2023-11-19T16:19:39;11.20;98.70